Time;durP1;ratioP1;P1;durP2;ratioP2;P2;SDS_P1;SDS_P2;PMS_P1;PMS_P2;Temp;Humidity;BMP_temperature;BMP_pressure;BME280_temperature;BME280_humidity;BME280_pressure;Samples;Min_cycle;Max_cycle;Signal;HPM_P1;HPM_P2
2023/07/16 00:01:53;;;;;;;3.77;3.47;;;19.60;99.90;;;;;;5007964;28;20743;-65
2023/07/16 00:04:21;;;;;;;3.37;2.70;;;19.50;99.90;;;;;;5007418;28;20442;-65
2023/07/16 00:06:49;;;;;;;5.30;2.77;;;19.40;99.90;;;;;;5007502;28;20460;-66
2023/07/16 00:09:17;;;;;;;3.70;2.90;;;19.40;99.90;;;;;;5012242;28;20475;-65
2023/07/16 00:11:45;;;;;;;3.40;3.10;;;19.30;99.90;;;;;;5019387;28;20511;-65
2023/07/16 00:14:13;;;;;;;4.83;2.90;;;19.30;99.90;;;;;;5026597;28;20433;-66
2023/07/16 00:16:41;;;;;;;2.33;2.13;;;19.30;99.90;;;;;;5027886;28;20441;-67
2023/07/16 00:19:12;;;;;;;2.63;2.43;;;19.30;99.90;;;;;;5026734;28;20923;-66
2023/07/16 00:21:40;;;;;;;2.70;2.27;;;19.30;99.90;;;;;;5019946;28;20540;-66
2023/07/16 00:24:08;;;;;;;2.83;2.43;;;19.20;99.90;;;;;;4987350;28;20434;-66
2023/07/16 00:26:35;;;;;;;3.43;2.53;;;19.20;99.90;;;;;;4987889;28;20520;-66
2023/07/16 00:29:03;;;;;;;3.40;1.93;;;19.10;99.90;;;;;;4987533;28;20501;-67
2023/07/16 00:31:32;;;;;;;4.47;2.17;;;19.10;99.90;;;;;;4988012;28;20473;-66
2023/07/16 00:34:00;;;;;;;3.40;2.70;;;19.10;99.90;;;;;;4987100;28;20493;-67
2023/07/16 00:36:29;;;;;;;3.83;2.77;;;19.10;99.90;;;;;;4988243;28;20453;-66
2023/07/16 00:38:57;;;;;;;192.20;19.67;;;19.10;99.90;;;;;;5002066;28;20465;-66
2023/07/16 00:41:25;;;;;;;22.90;4.67;;;19.20;99.90;;;;;;5018503;28;21009;-66
2023/07/16 00:43:54;;;;;;;2.93;2.73;;;19.20;99.90;;;;;;5025631;28;20463;-67
2023/07/16 00:46:22;;;;;;;1.93;1.73;;;19.20;99.90;;;;;;4987849;28;20509;-66
2023/07/16 00:48:50;;;;;;;1.67;1.43;;;19.10;99.90;;;;;;4989071;28;20486;-66
2023/07/16 00:51:19;;;;;;;2.40;2.20;;;19.10;99.90;;;;;;4990181;28;20965;-68
2023/07/16 00:53:49;;;;;;;71.47;11.60;;;19.10;99.90;;;;;;4989393;28;20451;-67
2023/07/16 00:56:18;;;;;;;188.10;21.77;;;19.10;99.90;;;;;;5009291;28;20480;-67
2023/07/16 00:58:46;;;;;;;12.43;4.33;;;19.00;99.90;;;;;;5009600;28;21010;-68
2023/07/16 01:01:14;;;;;;;99.47;15.07;;;19.00;99.90;;;;;;5009748;28;20869;-67
2023/07/16 01:03:42;;;;;;;114.37;14.07;;;19.00;99.90;;;;;;5009313;28;20454;-66
2023/07/16 01:06:15;;;;;;;4.00;3.53;;;19.10;99.90;;;;;;5010014;28;20449;-67
2023/07/16 01:08:50;;;;;;;44.67;7.50;;;19.20;99.90;;;;;;5009429;28;20485;-67
2023/07/16 01:11:19;;;;;;;3.90;2.90;;;19.30;99.90;;;;;;5001568;28;20512;-67
2023/07/16 01:13:47;;;;;;;2.90;2.70;;;19.40;99.90;;;;;;4993546;28;20485;-67
2023/07/16 01:16:22;;;;;;;2.63;2.43;;;19.40;99.90;;;;;;4994248;28;20447;-67
2023/07/16 01:18:51;;;;;;;2.50;2.10;;;19.30;99.90;;;;;;4994096;28;20569;-67
2023/07/16 01:21:20;;;;;;;2.53;1.90;;;19.20;99.90;;;;;;4993844;28;20983;-67
2023/07/16 01:24:27;;;;;;;2.60;2.40;;;19.30;99.90;;;;;;4993542;28;20439;-67
2023/07/16 01:27:28;;;;;;;2.77;1.93;;;19.30;99.90;;;;;;4985262;28;20443;-67
2023/07/16 01:30:01;;;;;;;2.13;1.83;;;19.20;99.90;;;;;;4990297;28;20485;-66
2023/07/16 01:32:31;;;;;;;2.80;2.60;;;19.20;99.90;;;;;;4993649;28;20449;-67
2023/07/16 01:35:00;;;;;;;2.53;2.20;;;19.10;99.90;;;;;;4993794;28;20439;-68
2023/07/16 01:37:28;;;;;;;3.13;2.17;;;19.10;99.90;;;;;;4993886;28;20501;-67
2023/07/16 01:39:56;;;;;;;1.83;1.67;;;19.10;99.90;;;;;;4993707;28;20906;-66
2023/07/16 01:42:24;;;;;;;2.20;2.00;;;19.10;99.90;;;;;;4993215;28;20518;-66
2023/07/16 01:44:52;;;;;;;2.63;2.40;;;19.10;99.90;;;;;;4993483;28;20451;-67
2023/07/16 01:47:30;;;;;;;3.83;2.53;;;19.20;99.90;;;;;;4993706;28;20478;-66
2023/07/16 01:49:58;;;;;;;4.77;1.77;;;19.20;99.90;;;;;;4993614;28;20532;-67
2023/07/16 01:52:26;;;;;;;1.60;1.50;;;19.20;99.90;;;;;;4993747;28;20538;-67
2023/07/16 01:54:54;;;;;;;1.47;1.00;;;19.10;99.90;;;;;;4993364;28;20481;-67
2023/07/16 01:57:22;;;;;;;1.70;1.60;;;19.00;99.90;;;;;;4993721;28;20511;-67
2023/07/16 01:59:49;;;;;;;2.33;1.50;;;18.80;99.90;;;;;;4993365;28;20480;-68
2023/07/16 02:02:17;;;;;;;2.40;1.30;;;18.70;99.90;;;;;;4993828;28;20455;-67
2023/07/16 02:04:47;;;;;;;2.30;1.83;;;18.60;99.90;;;;;;4992957;28;20529;-68
2023/07/16 02:07:15;;;;;;;3.73;2.03;;;18.50;99.90;;;;;;4993200;28;20450;-67
2023/07/16 02:09:42;;;;;;;2.40;2.20;;;18.40;99.90;;;;;;4992910;28;20875;-67
2023/07/16 02:12:10;;;;;;;4.40;2.00;;;18.40;99.90;;;;;;4992910;28;20454;-67
2023/07/16 02:14:38;;;;;;;2.10;1.70;;;18.50;99.90;;;;;;4996997;28;20452;-67
2023/07/16 02:17:06;;;;;;;2.90;1.83;;;18.40;99.90;;;;;;5012479;28;20856;-67
2023/07/16 02:19:34;;;;;;;3.07;1.37;;;18.50;99.90;;;;;;5012101;28;20516;-68
2023/07/16 02:22:04;;;;;;;2.27;1.80;;;18.40;99.90;;;;;;5012012;28;20442;-68
2023/07/16 02:24:32;;;;;;;5.37;1.90;;;18.40;99.90;;;;;;5010784;28;20438;-67
2023/07/16 02:26:59;;;;;;;1.80;1.70;;;18.40;99.90;;;;;;5012146;28;20525;-67
2023/07/16 02:29:27;;;;;;;2.37;1.43;;;18.50;99.90;;;;;;5011923;28;20489;-67
2023/07/16 02:31:55;;;;;;;2.50;2.03;;;18.60;99.90;;;;;;4998229;28;20551;-68
2023/07/16 02:34:23;;;;;;;15.73;3.27;;;18.50;99.90;;;;;;4991973;28;20915;-68
2023/07/16 02:36:51;;;;;;;3.50;2.10;;;18.50;99.90;;;;;;4992190;28;20453;-68
2023/07/16 02:39:20;;;;;;;3.90;1.70;;;18.50;99.90;;;;;;4992027;28;20462;-67
2023/07/16 02:41:48;;;;;;;2.27;1.60;;;18.50;99.90;;;;;;4992478;28;20452;-68
2023/07/16 02:44:16;;;;;;;3.37;1.53;;;18.40;99.90;;;;;;4992032;28;20501;-67
2023/07/16 02:46:44;;;;;;;2.67;1.87;;;18.40;99.90;;;;;;4992301;28;20458;-67
2023/07/16 02:49:13;;;;;;;2.93;2.00;;;18.40;99.90;;;;;;4991646;28;20578;-67
2023/07/16 02:51:40;;;;;;;1.93;1.50;;;18.40;99.90;;;;;;4991959;28;20442;-68
2023/07/16 02:54:08;;;;;;;3.40;1.90;;;18.40;99.90;;;;;;4991637;28;20447;-67
2023/07/16 02:56:38;;;;;;;4.10;2.23;;;18.40;99.90;;;;;;4992255;28;20486;-67
2023/07/16 02:59:06;;;;;;;6.80;1.90;;;18.40;99.90;;;;;;4991788;28;20501;-67
2023/07/16 03:01:33;;;;;;;2.90;1.33;;;18.30;99.90;;;;;;4991552;28;20522;-66
2023/07/16 03:04:02;;;;;;;2.93;1.47;;;18.30;99.90;;;;;;4991450;28;20447;-67
2023/07/16 03:06:29;;;;;;;3.30;1.60;;;18.30;99.90;;;;;;4991549;28;20897;-67
2023/07/16 03:08:57;;;;;;;2.70;1.90;;;18.20;99.90;;;;;;4991580;28;20502;-67
2023/07/16 03:11:25;;;;;;;4.50;2.47;;;18.20;99.90;;;;;;4991408;28;20509;-67
2023/07/16 03:13:55;;;;;;;2.30;1.83;;;18.20;99.90;;;;;;4991142;28;20445;-67
2023/07/16 03:16:23;;;;;;;2.60;2.00;;;18.10;99.90;;;;;;4990093;28;20445;-67
2023/07/16 03:18:51;;;;;;;2.57;1.70;;;18.00;99.90;;;;;;4991656;28;20918;-66
2023/07/16 03:21:19;;;;;;;3.53;1.80;;;18.00;99.90;;;;;;4991303;28;20458;-66
2023/07/16 03:23:47;;;;;;;2.47;1.83;;;18.00;99.90;;;;;;4991072;28;20447;-66
2023/07/16 03:26:15;;;;;;;2.40;1.90;;;18.00;99.90;;;;;;4991501;28;20990;-66
2023/07/16 03:28:43;;;;;;;5.13;1.83;;;18.00;99.90;;;;;;4991073;28;20449;-66
2023/07/16 03:31:12;;;;;;;4.00;2.50;;;18.00;99.90;;;;;;4989756;28;20854;-66
2023/07/16 03:33:40;;;;;;;2.40;2.20;;;17.90;99.90;;;;;;4991134;28;20488;-66
2023/07/16 03:36:08;;;;;;;7.10;2.50;;;17.90;99.90;;;;;;4991062;28;20502;-65
2023/07/16 03:38:36;;;;;;;4.17;2.43;;;17.90;99.90;;;;;;5009714;28;20528;-64
2023/07/16 03:41:04;;;;;;;3.40;2.23;;;17.80;99.90;;;;;;5010543;28;20488;-65
2023/07/16 03:43:32;;;;;;;2.87;1.80;;;17.80;99.90;;;;;;5010505;28;20446;-66
2023/07/16 03:46:00;;;;;;;2.60;1.70;;;17.80;99.90;;;;;;5010663;28;20450;-66
2023/07/16 03:48:29;;;;;;;4.87;1.87;;;17.80;99.90;;;;;;5010753;28;20457;-65
2023/07/16 03:50:57;;;;;;;3.50;1.57;;;17.80;99.90;;;;;;5008900;28;20481;-65
2023/07/16 03:53:25;;;;;;;4.33;2.00;;;17.70;99.90;;;;;;4992597;28;21249;-66
2023/07/16 03:55:53;;;;;;;1.80;1.70;;;17.60;99.90;;;;;;4990780;28;20505;-66
2023/07/16 03:58:22;;;;;;;2.10;1.70;;;17.60;99.90;;;;;;4991573;28;20486;-65
2023/07/16 04:00:52;;;;;;;2.10;1.57;;;17.60;99.90;;;;;;4991362;28;20825;-65
2023/07/16 04:03:20;;;;;;;3.13;1.50;;;17.60;99.90;;;;;;4990723;28;20442;-65
2023/07/16 04:05:49;;;;;;;1.90;1.73;;;17.60;99.90;;;;;;4998861;28;20442;-65
2023/07/16 04:08:17;;;;;;;6.33;1.90;;;17.60;99.90;;;;;;5009348;28;20885;-66
2023/07/16 04:10:45;;;;;;;3.67;2.07;;;17.70;99.90;;;;;;5010537;28;20489;-65
2023/07/16 04:13:14;;;;;;;3.73;2.20;;;17.70;99.90;;;;;;5009937;28;20521;-66
2023/07/16 04:15:42;;;;;;;3.17;1.70;;;17.60;99.90;;;;;;5010296;28;20448;-66
2023/07/16 04:18:10;;;;;;;4.07;2.90;;;17.70;99.90;;;;;;5010531;28;20454;-65
2023/07/16 04:20:38;;;;;;;5.30;1.73;;;17.60;99.90;;;;;;5010041;28;20466;-65
2023/07/16 04:23:07;;;;;;;2.90;2.33;;;17.60;99.90;;;;;;4991515;28;20475;-65
2023/07/16 04:25:35;;;;;;;4.13;2.00;;;17.60;99.90;;;;;;4990445;28;21291;-66
2023/07/16 04:28:04;;;;;;;7.23;1.93;;;17.60;99.90;;;;;;4990710;28;20497;-65
2023/07/16 04:30:32;;;;;;;2.03;1.83;;;17.70;99.90;;;;;;4989894;28;20487;-66
2023/07/16 04:32:59;;;;;;;2.80;2.23;;;17.70;99.90;;;;;;4989522;28;20442;-66
2023/07/16 04:35:27;;;;;;;2.53;1.93;;;17.60;99.90;;;;;;5007009;28;20444;-65
2023/07/16 04:37:55;;;;;;;3.43;1.97;;;17.60;99.90;;;;;;5019129;28;20457;-66
2023/07/16 04:40:25;;;;;;;2.97;2.30;;;17.70;99.90;;;;;;5010137;28;20980;-65
2023/07/16 04:42:53;;;;;;;3.00;1.90;;;17.70;99.90;;;;;;5011267;28;20472;-66
2023/07/16 04:45:21;;;;;;;3.63;2.33;;;17.80;99.90;;;;;;5026040;28;20452;-66
2023/07/16 04:47:49;;;;;;;3.30;2.07;;;17.80;99.90;;;;;;5007924;28;21182;-66
2023/07/16 04:50:17;;;;;;;2.77;2.10;;;17.80;99.90;;;;;;5009786;28;21042;-65
2023/07/16 04:52:46;;;;;;;3.90;2.20;;;17.80;99.90;;;;;;5010052;28;20452;-66
2023/07/16 04:55:13;;;;;;;3.10;2.20;;;17.80;99.90;;;;;;5007915;28;20968;-66
2023/07/16 04:57:43;;;;;;;2.60;2.20;;;17.80;99.90;;;;;;5009797;28;20473;-65
2023/07/16 05:00:12;;;;;;;5.60;2.07;;;17.80;99.90;;;;;;5009360;28;20470;-65
2023/07/16 05:02:40;;;;;;;3.87;2.37;;;17.80;99.90;;;;;;5009432;28;20446;-66
2023/07/16 05:05:09;;;;;;;3.33;2.20;;;17.80;99.90;;;;;;5009841;28;20437;-65
2023/07/16 05:07:36;;;;;;;2.50;2.30;;;17.70;99.90;;;;;;5009752;28;20453;-66
2023/07/16 05:10:05;;;;;;;3.50;2.27;;;17.80;99.90;;;;;;5010222;28;20507;-66
2023/07/16 05:12:33;;;;;;;2.63;1.90;;;17.80;99.90;;;;;;4989861;28;20447;-66
2023/07/16 05:15:02;;;;;;;3.67;2.10;;;17.80;99.90;;;;;;4990132;28;20451;-67
2023/07/16 05:17:30;;;;;;;3.97;2.90;;;17.80;99.90;;;;;;4990210;28;20450;-66
2023/07/16 05:19:58;;;;;;;2.30;2.13;;;17.80;99.90;;;;;;5000496;28;20492;-66
2023/07/16 05:22:26;;;;;;;3.90;2.03;;;17.90;99.90;;;;;;5009188;28;20437;-66
2023/07/16 05:24:54;;;;;;;4.10;2.30;;;18.00;99.90;;;;;;5009768;28;20522;-67
2023/07/16 05:27:22;;;;;;;4.40;2.60;;;18.10;99.90;;;;;;4997544;28;20475;-67
2023/07/16 05:29:50;;;;;;;2.80;2.20;;;18.20;99.90;;;;;;4989749;28;20466;-66
2023/07/16 05:32:20;;;;;;;2.87;2.50;;;18.20;99.90;;;;;;5003086;28;20470;-66
2023/07/16 05:34:48;;;;;;;2.93;2.60;;;18.30;99.90;;;;;;5009308;28;20936;-65
2023/07/16 05:37:16;;;;;;;3.70;2.53;;;18.40;99.90;;;;;;5009207;28;20504;-67
2023/07/16 05:39:44;;;;;;;7.63;3.00;;;18.40;99.90;;;;;;5009277;28;20470;-67
2023/07/16 05:42:12;;;;;;;7.00;2.43;;;18.40;99.90;;;;;;5009174;28;20485;-66
2023/07/16 05:44:40;;;;;;;2.90;1.70;;;18.40;99.90;;;;;;4992146;28;20877;-66
2023/07/16 05:47:08;;;;;;;3.70;2.10;;;18.50;99.90;;;;;;4989720;28;20442;-66
2023/07/16 05:49:37;;;;;;;3.23;2.47;;;18.50;99.90;;;;;;4990019;28;20471;-65
2023/07/16 05:52:06;;;;;;;3.43;2.10;;;18.60;99.90;;;;;;5007925;28;20481;-66
2023/07/16 05:54:34;;;;;;;3.10;2.20;;;18.70;99.90;;;;;;5028426;28;20441;-66
2023/07/16 05:57:02;;;;;;;3.23;2.10;;;18.80;99.90;;;;;;5028001;28;20473;-66
2023/07/16 05:59:34;;;;;;;4.17;1.53;;;18.90;99.90;;;;;;5030302;28;20464;-66
2023/07/16 06:02:02;;;;;;;2.83;1.80;;;19.00;99.90;;;;;;5017725;28;20458;-67
2023/07/16 06:04:30;;;;;;;4.50;2.03;;;19.00;99.90;;;;;;5011749;28;20442;-65
2023/07/16 06:06:59;;;;;;;2.90;1.70;;;19.20;99.90;;;;;;5011734;28;20504;-66
2023/07/16 06:09:27;;;;;;;264.47;238.10;;;19.20;99.90;;;;;;5012358;28;20479;-66
2023/07/16 06:11:55;;;;;;;3.33;2.07;;;19.20;99.90;;;;;;5012495;28;20488;-67
2023/07/16 06:14:23;;;;;;;3.30;1.70;;;19.40;99.90;;;;;;5012396;28;20449;-66
2023/07/16 06:16:52;;;;;;;3.00;1.80;;;19.50;99.90;;;;;;5012490;28;20457;-67
2023/07/16 06:19:20;;;;;;;4.03;2.13;;;19.50;99.90;;;;;;5012499;28;20494;-66
2023/07/16 06:21:48;;;;;;;5.97;1.53;;;19.50;99.90;;;;;;5004326;28;20575;-66
2023/07/16 06:24:17;;;;;;;2.93;1.97;;;19.50;99.90;;;;;;4992351;28;20525;-66
2023/07/16 06:26:47;;;;;;;3.70;1.77;;;19.50;99.90;;;;;;4992748;28;20451;-66
2023/07/16 06:29:15;;;;;;;4.20;2.20;;;19.50;99.90;;;;;;4992154;28;21148;-66
2023/07/16 06:31:44;;;;;;;14.00;12.90;;;19.50;99.90;;;;;;4992627;28;20895;-66
2023/07/16 06:34:12;;;;;;;5.90;1.97;;;19.50;99.90;;;;;;5004409;28;20521;-66
2023/07/16 06:36:41;;;;;;;6.83;1.93;;;19.50;99.90;;;;;;5012065;28;20529;-67
2023/07/16 06:39:09;;;;;;;3.63;2.07;;;19.70;99.90;;;;;;5011253;28;20465;-67
2023/07/16 06:41:38;;;;;;;5.57;1.93;;;19.80;99.90;;;;;;5011943;28;20516;-65
2023/07/16 06:44:06;;;;;;;3.27;1.53;;;19.90;99.90;;;;;;5011894;28;20468;-68
2023/07/16 06:46:34;;;;;;;3.10;2.07;;;20.20;99.90;;;;;;5011448;28;20496;-67
2023/07/16 06:49:02;;;;;;;3.93;2.07;;;20.40;99.90;;;;;;5012204;28;20807;-68
2023/07/16 06:51:31;;;;;;;5.47;2.00;;;20.50;99.90;;;;;;5011718;28;21071;-67
2023/07/16 06:53:59;;;;;;;3.10;1.60;;;20.70;99.90;;;;;;5008523;28;20458;-68
2023/07/16 06:56:27;;;;;;;3.90;2.10;;;20.90;99.90;;;;;;4991048;28;20468;-67
2023/07/16 06:58:57;;;;;;;6.30;2.60;;;21.10;99.90;;;;;;4991622;28;20463;-67
2023/07/16 07:01:27;;;;;;;6.17;2.03;;;21.00;99.90;;;;;;4991744;28;20466;-67
2023/07/16 07:03:56;;;;;;;2.70;2.30;;;20.90;99.90;;;;;;4991704;28;20443;-67
2023/07/16 07:06:24;;;;;;;7.00;1.90;;;20.90;99.90;;;;;;4991760;28;20892;-67
2023/07/16 07:08:53;;;;;;;4.43;2.37;;;21.00;99.90;;;;;;4991758;28;20471;-66
2023/07/16 07:11:21;;;;;;;4.43;2.33;;;21.10;99.90;;;;;;5001071;28;20450;-67
2023/07/16 07:13:50;;;;;;;2.97;1.93;;;21.30;99.90;;;;;;5011090;28;21226;-67
2023/07/16 07:16:20;;;;;;;5.33;1.90;;;21.00;99.90;;;;;;5011386;28;20508;-65
2023/07/16 07:18:48;;;;;;;4.83;2.17;;;20.60;99.90;;;;;;5011866;28;20426;-66
2023/07/16 07:21:16;;;;;;;4.30;2.17;;;20.40;99.90;;;;;;5011252;28;20469;-66
2023/07/16 07:23:44;;;;;;;2.50;1.90;;;20.30;99.90;;;;;;5011191;28;20507;-66
2023/07/16 07:26:12;;;;;;;4.67;2.00;;;20.50;99.90;;;;;;5011117;28;20538;-65
2023/07/16 07:28:40;;;;;;;2.47;2.07;;;20.50;99.90;;;;;;5009047;28;20551;-66
2023/07/16 07:31:08;;;;;;;3.00;1.80;;;20.40;99.90;;;;;;5011156;28;20492;-67
2023/07/16 07:33:38;;;;;;;4.63;2.03;;;20.40;99.90;;;;;;5006553;28;20486;-65
2023/07/16 07:36:06;;;;;;;2.80;2.23;;;20.50;99.90;;;;;;4996564;28;21028;-66
2023/07/16 07:38:34;;;;;;;2.50;1.80;;;20.80;99.90;;;;;;4991986;28;20439;-66
2023/07/16 07:41:06;;;;;;;2.50;1.70;;;20.90;99.90;;;;;;4991456;28;20546;-66
2023/07/16 07:43:34;;;;;;;8.93;2.17;;;20.90;99.90;;;;;;5011160;28;20434;-65
2023/07/16 07:46:01;;;;;;;4.10;2.03;;;21.10;99.90;;;;;;5010724;28;20537;-66
2023/07/16 07:48:29;;;;;;;5.10;2.30;;;21.10;99.90;;;;;;5010891;28;20525;-65
2023/07/16 07:50:59;;;;;;;5.40;1.70;;;21.30;99.90;;;;;;5008304;28;20492;-65
2023/07/16 07:53:27;;;;;;;3.43;1.87;;;21.30;99.90;;;;;;4990561;28;20533;-66
2023/07/16 07:55:55;;;;;;;4.20;1.90;;;21.30;99.90;;;;;;4990761;28;20550;-66
2023/07/16 07:58:24;;;;;;;4.67;1.90;;;21.30;99.90;;;;;;4990622;28;20479;-66
2023/07/16 08:00:52;;;;;;;4.82;1.70;;;21.40;99.90;;;;;;4990700;28;20437;-65
2023/07/16 08:03:20;;;;;;;3.83;2.30;;;21.20;99.90;;;;;;4990405;28;20621;-65
2023/07/16 08:05:50;;;;;;;4.93;1.83;;;21.10;99.90;;;;;;4999833;28;20498;-66
2023/07/16 08:08:21;;;;;;;4.40;2.23;;;21.10;99.90;;;;;;4999217;28;20541;-67
2023/07/16 08:10:49;;;;;;;3.60;1.90;;;21.20;99.90;;;;;;5005793;28;20553;-65
2023/07/16 08:13:17;;;;;;;5.60;1.80;;;21.20;99.90;;;;;;5009996;28;20527;-66
2023/07/16 08:15:45;;;;;;;3.67;1.80;;;21.30;99.90;;;;;;5010117;28;20477;-65
2023/07/16 08:18:13;;;;;;;4.73;2.10;;;21.30;99.90;;;;;;5027184;28;20449;-65
2023/07/16 08:20:41;;;;;;;2.90;1.83;;;21.20;99.90;;;;;;5015196;28;20466;-65
2023/07/16 08:23:09;;;;;;;3.93;2.00;;;21.10;99.90;;;;;;5009578;28;21093;-65
2023/07/16 08:25:39;;;;;;;4.57;1.70;;;21.10;99.90;;;;;;5010471;28;20438;-66
2023/07/16 08:28:07;;;;;;;5.07;1.87;;;21.30;99.90;;;;;;5010408;28;20536;-64
2023/07/16 08:30:35;;;;;;;3.50;1.60;;;21.30;99.90;;;;;;5010174;28;20505;-65
2023/07/16 08:33:03;;;;;;;4.30;1.97;;;21.20;99.90;;;;;;5009543;28;20481;-66
2023/07/16 08:35:31;;;;;;;2.43;1.90;;;21.30;99.90;;;;;;5007444;28;20821;-65
2023/07/16 08:37:59;;;;;;;3.00;2.20;;;21.60;99.90;;;;;;4998931;28;20451;-64
2023/07/16 08:40:28;;;;;;;2.30;1.50;;;22.10;99.90;;;;;;4999403;28;20466;-66
2023/07/16 08:42:58;;;;;;;2.20;1.87;;;22.60;99.90;;;;;;5006645;28;20444;-66
2023/07/16 08:45:29;;;;;;;2.87;1.90;;;23.10;99.90;;;;;;5009718;28;20445;-66
2023/07/16 08:47:57;;;;;;;3.27;1.90;;;23.70;99.30;;;;;;5010433;28;20453;-66
2023/07/16 08:50:26;;;;;;;5.37;1.97;;;24.20;96.60;;;;;;5009960;28;20839;-66
2023/07/16 08:52:58;;;;;;;3.00;1.87;;;24.00;93.50;;;;;;5009731;28;20481;-66
2023/07/16 08:55:26;;;;;;;2.60;1.80;;;24.00;93.10;;;;;;5000213;28;20517;-65
2023/07/16 08:57:54;;;;;;;1.70;1.50;;;24.20;94.30;;;;;;4990125;28;20515;-67
2023/07/16 09:00:26;;;;;;;3.03;2.30;;;24.00;89.50;;;;;;4996059;28;20549;-65
2023/07/16 09:02:55;;;;;;;4.73;2.33;;;23.70;90.10;;;;;;5009700;28;20442;-65
2023/07/16 09:05:23;;;;;;;5.37;2.10;;;23.70;91.20;;;;;;5005818;28;20450;-67
2023/07/16 09:08:07;;;;;;;2.27;1.93;;;23.80;90.40;;;;;;4990118;28;20528;-66
2023/07/16 09:10:35;;;;;;;4.67;2.23;;;24.10;90.80;;;;;;4990383;28;21044;-67
2023/07/16 09:13:03;;;;;;;2.40;2.10;;;23.80;89.50;;;;;;4990102;28;20537;-67
2023/07/16 09:15:33;;;;;;;3.30;1.70;;;23.90;88.50;;;;;;4990235;28;20449;-67
2023/07/16 09:18:02;;;;;;;4.63;2.20;;;24.30;90.50;;;;;;4988461;28;20483;-65
2023/07/16 09:20:31;;;;;;;2.00;1.70;;;24.60;87.30;;;;;;5001437;28;20470;-65
2023/07/16 09:22:59;;;;;;;4.77;2.10;;;24.50;87.60;;;;;;4999787;28;20441;-63
2023/07/16 09:25:27;;;;;;;4.97;1.80;;;24.20;88.60;;;;;;5000574;28;20489;-66
2023/07/16 09:27:55;;;;;;;4.53;1.93;;;24.00;90.50;;;;;;4989687;28;20479;-66
2023/07/16 09:30:23;;;;;;;4.70;1.90;;;24.30;90.00;;;;;;4989800;28;20458;-66
2023/07/16 09:32:53;;;;;;;3.30;2.27;;;24.20;83.90;;;;;;4990095;28;20508;-68
2023/07/16 09:35:21;;;;;;;3.67;1.90;;;24.10;87.20;;;;;;4993475;28;20455;-65
2023/07/16 09:37:51;;;;;;;3.63;2.17;;;24.10;87.60;;;;;;4993372;28;20537;-64
2023/07/16 09:40:19;;;;;;;3.53;2.07;;;23.90;89.10;;;;;;5000730;28;20500;-63
2023/07/16 09:42:48;;;;;;;2.50;1.87;;;23.80;87.30;;;;;;5003948;28;20879;-65
2023/07/16 09:45:19;;;;;;;2.90;2.17;;;23.50;89.10;;;;;;5004756;28;20462;-68
2023/07/16 09:47:47;;;;;;;2.83;1.97;;;23.20;88.90;;;;;;5002034;28;20493;-66
2023/07/16 09:50:17;;;;;;;2.93;1.63;;;23.30;90.10;;;;;;5002845;28;20617;-65
2023/07/16 09:52:48;;;;;;;5.47;2.60;;;23.60;90.60;;;;;;5002616;28;20840;-65
2023/07/16 09:55:17;;;;;;;3.70;1.97;;;23.90;90.40;;;;;;5003426;28;20549;-64
2023/07/16 09:57:45;;;;;;;5.83;2.53;;;24.10;90.10;;;;;;5004712;28;20524;-66
2023/07/16 10:00:16;;;;;;;5.00;2.17;;;24.20;90.30;;;;;;5007043;28;20831;-65
2023/07/16 10:02:45;;;;;;;2.40;1.80;;;24.70;87.20;;;;;;5004396;28;20529;-65
2023/07/16 10:05:14;;;;;;;5.13;2.70;;;25.10;86.20;;;;;;5003117;28;20430;-65
2023/07/16 10:07:50;;;;;;;6.33;2.30;;;25.00;83.20;;;;;;5001509;28;20801;-65
2023/07/16 10:10:18;;;;;;;5.53;2.30;;;25.10;85.10;;;;;;5006866;28;20556;-64
2023/07/16 10:12:57;;;;;;;3.77;2.13;;;24.80;82.90;;;;;;5000226;28;20981;-65
2023/07/16 10:15:28;;;;;;;5.13;2.67;;;24.50;84.40;;;;;;5007242;28;20544;-65
2023/07/16 10:17:57;;;;;;;4.00;2.13;;;24.20;83.90;;;;;;5011278;28;20450;-65
2023/07/16 10:20:32;;;;;;;4.03;2.37;;;24.00;88.10;;;;;;5005856;28;20878;-66
2023/07/16 10:23:12;;;;;;;2.00;1.70;;;24.00;88.70;;;;;;5012160;28;20445;-63
2023/07/16 10:25:40;;;;;;;4.57;2.00;;;24.10;86.90;;;;;;5012487;28;20442;-65
2023/07/16 10:28:08;;;;;;;2.43;2.23;;;24.40;83.20;;;;;;5005430;28;20470;-65
2023/07/16 10:30:36;;;;;;;3.43;2.30;;;24.20;85.50;;;;;;5011220;28;20470;-65
2023/07/16 10:33:12;;;;;;;4.93;2.33;;;24.40;87.90;;;;;;5011549;28;20469;-65
2023/07/16 10:35:42;;;;;;;4.30;2.27;;;25.20;79.40;;;;;;5011264;28;20520;-66
2023/07/16 10:38:12;;;;;;;4.97;2.30;;;25.70;78.70;;;;;;5010254;28;21117;-66
2023/07/16 10:40:45;;;;;;;3.10;2.60;;;25.90;76.30;;;;;;5011863;28;20454;-65
2023/07/16 10:43:14;;;;;;;6.07;2.47;;;25.80;78.00;;;;;;5013545;28;20446;-66
2023/07/16 10:45:42;;;;;;;4.30;2.27;;;26.10;76.60;;;;;;5010824;28;20649;-65
2023/07/16 10:48:10;;;;;;;4.87;1.83;;;26.60;77.40;;;;;;5010881;28;20521;-66
2023/07/16 10:50:38;;;;;;;2.73;2.20;;;26.70;75.50;;;;;;5008783;28;20451;-66
2023/07/16 10:53:06;;;;;;;3.50;2.20;;;26.80;70.80;;;;;;5003454;28;20443;-66
2023/07/16 10:55:37;;;;;;;3.83;2.53;;;26.70;68.50;;;;;;5010156;28;20484;-66
2023/07/16 10:58:07;;;;;;;6.83;2.33;;;26.80;70.90;;;;;;5003647;28;20824;-66
2023/07/16 11:00:38;;;;;;;3.57;2.23;;;27.00;70.80;;;;;;5003188;28;20458;-67
2023/07/16 11:03:07;;;;;;;4.93;2.20;;;26.70;69.00;;;;;;5004209;28;20445;-66
2023/07/16 11:05:36;;;;;;;2.30;1.80;;;26.50;67.60;;;;;;5001107;28;20436;-65
2023/07/16 11:08:04;;;;;;;4.23;2.07;;;26.80;70.40;;;;;;5002507;28;20450;-67
2023/07/16 11:10:32;;;;;;;3.07;2.00;;;26.50;65.60;;;;;;5000041;28;20486;-67
2023/07/16 11:13:01;;;;;;;4.93;3.20;;;26.70;65.80;;;;;;5002106;28;20434;-67
2023/07/16 11:15:34;;;;;;;3.07;2.20;;;26.70;67.30;;;;;;5002590;28;20827;-66
2023/07/16 11:18:02;;;;;;;3.17;2.17;;;26.70;71.70;;;;;;4991436;28;20908;-69
2023/07/16 11:20:31;;;;;;;3.33;2.07;;;26.90;68.30;;;;;;4991489;28;21059;-68
2023/07/16 11:23:00;;;;;;;2.47;2.13;;;26.60;67.60;;;;;;4991623;28;20450;-67
2023/07/16 11:25:29;;;;;;;5.80;2.80;;;26.10;68.80;;;;;;5001463;28;20891;-67
2023/07/16 11:27:57;;;;;;;3.57;2.10;;;25.50;71.70;;;;;;4998663;28;20443;-65
2023/07/16 11:30:27;;;;;;;4.83;2.50;;;25.00;75.10;;;;;;5002201;28;20911;-66
2023/07/16 11:32:58;;;;;;;4.50;2.70;;;24.90;73.50;;;;;;4995015;28;20500;-65
2023/07/16 11:35:27;;;;;;;3.40;2.20;;;25.70;74.10;;;;;;4996675;28;20569;-69
2023/07/16 11:37:55;;;;;;;3.70;2.20;;;26.80;64.60;;;;;;4999585;28;20516;-66
2023/07/16 11:40:23;;;;;;;3.20;2.13;;;27.80;62.50;;;;;;5004577;28;20470;-67
2023/07/16 11:42:51;;;;;;;4.13;1.87;;;28.70;63.20;;;;;;5006639;28;20474;-66
2023/07/16 11:45:23;;;;;;;4.50;2.40;;;29.50;64.60;;;;;;5006052;28;20453;-68
2023/07/16 11:47:52;;;;;;;2.30;2.10;;;30.40;57.70;;;;;;5004611;28;21078;-69
2023/07/16 11:50:21;;;;;;;3.63;2.50;;;30.10;55.90;;;;;;5009720;28;20504;-68
2023/07/16 11:52:53;;;;;;;4.97;2.13;;;29.30;56.10;;;;;;5005883;28;20462;-67
2023/07/16 11:55:20;;;;;;;3.80;2.30;;;29.20;58.00;;;;;;5006472;28;20543;-68
2023/07/16 11:57:48;;;;;;;5.73;5.13;;;29.40;54.40;;;;;;5008656;28;20452;-66
2023/07/16 12:00:17;;;;;;;4.60;4.00;;;29.30;56.30;;;;;;5006842;28;20479;-67
2023/07/16 12:02:50;;;;;;;2.73;2.27;;;29.80;54.80;;;;;;5002983;28;20529;-68
2023/07/16 12:05:21;;;;;;;2.57;2.20;;;30.30;51.20;;;;;;5006137;28;20446;-67
2023/07/16 12:07:57;;;;;;;3.10;2.13;;;31.00;53.40;;;;;;5007181;28;20488;-67
2023/07/16 12:10:25;;;;;;;4.07;2.37;;;30.50;50.50;;;;;;5001914;28;20465;-67
2023/07/16 12:12:53;;;;;;;4.70;1.97;;;30.30;53.80;;;;;;5001461;28;20445;-66
2023/07/16 12:15:21;;;;;;;3.50;2.33;;;30.50;52.20;;;;;;5001075;28;20568;-67
2023/07/16 12:17:49;;;;;;;3.17;2.17;;;30.90;52.50;;;;;;5005658;28;20856;-66
2023/07/16 12:20:17;;;;;;;4.43;2.60;;;31.20;48.40;;;;;;5002868;28;20472;-66
2023/07/16 12:22:46;;;;;;;3.07;2.20;;;31.20;47.50;;;;;;5003342;28;21027;-66
2023/07/16 12:25:17;;;;;;;2.90;2.40;;;31.00;48.60;;;;;;5006737;28;20443;-68
2023/07/16 12:27:45;;;;;;;2.70;2.30;;;31.00;48.20;;;;;;5006181;28;20493;-67
2023/07/16 12:30:13;;;;;;;3.40;2.40;;;31.00;48.00;;;;;;5009875;28;20461;-67
2023/07/16 12:32:43;;;;;;;2.00;1.60;;;31.60;48.60;;;;;;4998180;28;20438;-67
2023/07/16 12:35:11;;;;;;;2.67;1.93;;;32.10;47.40;;;;;;4989532;28;20577;-67
2023/07/16 12:37:39;;;;;;;5.67;2.10;;;31.70;46.10;;;;;;4990651;28;20445;-67
2023/07/16 12:40:09;;;;;;;2.87;2.23;;;31.00;46.40;;;;;;4993617;28;20959;-67
2023/07/16 12:42:37;;;;;;;3.00;2.70;;;30.40;51.60;;;;;;5009458;28;20442;-67
2023/07/16 12:45:06;;;;;;;2.33;2.13;;;30.20;48.50;;;;;;5010111;28;20849;-67
2023/07/16 12:47:35;;;;;;;3.20;2.33;;;30.00;51.50;;;;;;5009387;28;20457;-66
2023/07/16 12:50:03;;;;;;;3.60;2.63;;;30.00;50.90;;;;;;5005744;28;20525;-68
2023/07/16 12:52:31;;;;;;;2.80;2.60;;;30.60;51.30;;;;;;5006068;28;20506;-68
2023/07/16 12:54:59;;;;;;;3.20;2.40;;;30.80;52.40;;;;;;4997118;28;20841;-68